Time;durP1;ratioP1;P1;durP2;ratioP2;P2;SDS_P1;SDS_P2;PMS_P1;PMS_P2;Temp;Humidity;BMP_temperature;BMP_pressure;BME280_temperature;BME280_humidity;BME280_pressure;Samples;Min_cycle;Max_cycle;Signal;HPM_P1;HPM_P2
2023/09/26 00:01:06;;;;;;;6.53;5.93;;;16.70;99.90;;;;;;6149978;23;20013;-76
2023/09/26 00:03:32;;;;;;;7.32;6.63;;;16.70;99.90;;;;;;6150760;23;20009;-77
2023/09/26 00:06:00;;;;;;;8.15;6.70;;;16.60;99.90;;;;;;6150503;23;20002;-77
2023/09/26 00:08:26;;;;;;;6.30;5.70;;;16.60;99.90;;;;;;6124319;23;20094;-77
2023/09/26 00:10:53;;;;;;;7.63;6.82;;;16.50;99.90;;;;;;6123492;23;20037;-77
2023/09/26 00:13:18;;;;;;;10.05;6.97;;;16.50;99.90;;;;;;6123937;23;20012;-77
2023/09/26 00:15:45;;;;;;;7.97;6.28;;;16.50;99.90;;;;;;6124347;23;20037;-77
2023/09/26 00:18:10;;;;;;;5.97;5.35;;;16.50;99.90;;;;;;6150470;23;20012;-76
2023/09/26 00:20:38;;;;;;;8.30;6.63;;;16.40;99.90;;;;;;6124402;23;20005;-76
2023/09/26 00:23:04;;;;;;;9.32;7.25;;;16.40;99.90;;;;;;6124122;23;20415;-77
2023/09/26 00:25:30;;;;;;;7.70;6.93;;;16.30;99.90;;;;;;6124497;23;20002;-77
2023/09/26 00:27:56;;;;;;;9.07;6.72;;;16.30;99.90;;;;;;6149753;23;20009;-76
2023/09/26 00:30:25;;;;;;;7.70;6.38;;;16.20;99.90;;;;;;6150645;23;20383;-77
2023/09/26 00:32:51;;;;;;;9.65;7.25;;;16.20;99.90;;;;;;6124075;23;20059;-77
2023/09/26 00:35:17;;;;;;;7.35;6.65;;;16.10;99.90;;;;;;6150765;23;20009;-78
2023/09/26 00:37:48;;;;;;;9.00;7.18;;;16.10;99.90;;;;;;6123879;23;20024;-77
2023/09/26 00:40:15;;;;;;;8.05;7.25;;;16.10;99.90;;;;;;6150537;23;20503;-77
2023/09/26 00:42:42;;;;;;;7.93;7.20;;;16.10;99.90;;;;;;6123924;23;20009;-77
2023/09/26 00:45:08;;;;;;;8.48;7.57;;;16.00;99.90;;;;;;6146580;23;20032;-77
2023/09/26 00:47:35;;;;;;;8.15;7.00;;;16.00;99.90;;;;;;6179119;23;20362;-77
2023/09/26 00:50:07;;;;;;;8.85;7.60;;;16.00;99.90;;;;;;6181061;23;20032;-77
2023/09/26 00:52:34;;;;;;;8.85;7.90;;;15.90;99.90;;;;;;6180890;23;20043;-77
2023/09/26 00:55:03;;;;;;;8.70;7.80;;;15.90;99.90;;;;;;6154592;23;20054;-77
2023/09/26 00:57:35;;;;;;;8.50;7.28;;;15.90;99.90;;;;;;6154068;23;20341;-77
2023/09/26 01:00:02;;;;;;;10.20;7.95;;;15.80;99.90;;;;;;6154494;23;20008;-77
2023/09/26 01:02:28;;;;;;;8.15;7.35;;;15.80;99.90;;;;;;6154530;23;20435;-77
2023/09/26 01:04:54;;;;;;;7.60;6.90;;;15.80;99.90;;;;;;6180625;23;20031;-77
2023/09/26 01:07:21;;;;;;;8.15;7.20;;;15.70;99.90;;;;;;6154414;23;20069;-77
2023/09/26 01:09:47;;;;;;;8.57;7.88;;;15.70;99.90;;;;;;6153906;23;20009;-77
2023/09/26 01:12:13;;;;;;;10.77;9.30;;;15.70;99.90;;;;;;6180381;23;20067;-77
2023/09/26 01:14:38;;;;;;;8.77;7.20;;;15.60;99.90;;;;;;6154226;23;20012;-77
2023/09/26 01:17:04;;;;;;;10.32;8.57;;;15.60;99.90;;;;;;6180560;23;20013;-77
2023/09/26 01:19:29;;;;;;;10.13;8.90;;;15.60;99.90;;;;;;6154623;23;20005;-77
2023/09/26 01:21:55;;;;;;;11.23;9.95;;;15.60;99.90;;;;;;6180498;23;20045;-77
2023/09/26 01:24:21;;;;;;;10.50;9.38;;;15.60;99.90;;;;;;6180647;23;20001;-76
2023/09/26 01:26:47;;;;;;;11.10;10.00;;;15.60;99.90;;;;;;6180257;23;20001;-76
2023/09/26 01:29:12;;;;;;;11.38;10.18;;;15.50;99.90;;;;;;6154615;23;20419;-77
2023/09/26 01:31:38;;;;;;;10.80;9.70;;;15.60;99.90;;;;;;6180536;23;20371;-77
2023/09/26 01:34:04;;;;;;;12.07;10.30;;;15.50;99.90;;;;;;6180598;23;20009;-77
2023/09/26 01:36:31;;;;;;;10.73;9.73;;;15.60;99.90;;;;;;6180974;23;20005;-76
2023/09/26 01:38:56;;;;;;;10.32;9.02;;;15.50;99.90;;;;;;6180415;23;19997;-77
2023/09/26 01:41:23;;;;;;;10.80;9.35;;;15.50;99.90;;;;;;6153872;23;20085;-77
2023/09/26 01:43:49;;;;;;;11.10;9.95;;;15.50;99.90;;;;;;6155897;23;20016;-76
2023/09/26 01:46:15;;;;;;;9.13;8.18;;;15.50;99.90;;;;;;6156190;23;19997;-76
2023/09/26 01:48:40;;;;;;;8.98;8.18;;;15.50;99.90;;;;;;6182217;23;20423;-76
2023/09/26 01:51:06;;;;;;;9.35;8.38;;;15.50;99.90;;;;;;6182368;23;20008;-77
2023/09/26 01:53:32;;;;;;;9.85;8.02;;;15.50;99.90;;;;;;6156393;23;20013;-77
2023/09/26 01:56:01;;;;;;;10.07;9.18;;;15.50;99.90;;;;;;6155367;23;20035;-77
2023/09/26 01:58:27;;;;;;;9.85;8.85;;;15.50;99.90;;;;;;6156488;23;20016;-77
2023/09/26 02:00:52;;;;;;;9.40;8.57;;;15.50;99.90;;;;;;6156027;23;20009;-77
2023/09/26 02:03:19;;;;;;;9.35;8.55;;;15.50;99.90;;;;;;6180917;23;20486;-77
2023/09/26 02:05:45;;;;;;;10.55;9.15;;;15.60;99.90;;;;;;6182305;23;20053;-77
2023/09/26 02:08:11;;;;;;;12.18;9.38;;;15.50;99.90;;;;;;6155884;23;20013;-77
2023/09/26 02:10:36;;;;;;;10.13;9.10;;;15.60;99.90;;;;;;6155183;23;20012;-77
2023/09/26 02:13:02;;;;;;;10.02;8.65;;;15.60;99.90;;;;;;6181846;23;20037;-77
2023/09/26 02:15:28;;;;;;;9.73;8.73;;;15.60;99.90;;;;;;6156518;23;20087;-77
2023/09/26 02:17:53;;;;;;;10.77;9.38;;;15.50;99.90;;;;;;6155543;23;20012;-77
2023/09/26 02:20:20;;;;;;;9.02;8.20;;;15.60;99.90;;;;;;6182357;23;20001;-76
2023/09/26 02:22:50;;;;;;;10.07;9.18;;;15.60;99.90;;;;;;6155315;23;20032;-77
2023/09/26 02:25:20;;;;;;;12.25;8.93;;;15.50;99.90;;;;;;6156227;23;20002;-77
2023/09/26 02:27:46;;;;;;;9.85;8.88;;;15.50;99.90;;;;;;6181734;23;20112;-77
2023/09/26 02:30:14;;;;;;;9.32;8.43;;;15.50;99.90;;;;;;6182241;23;20005;-76
2023/09/26 02:32:39;;;;;;;10.02;9.02;;;15.50;99.90;;;;;;6181874;23;20009;-77
2023/09/26 02:35:08;;;;;;;9.93;8.77;;;15.40;99.90;;;;;;6181924;23;20454;-77
2023/09/26 02:37:33;;;;;;;9.57;8.70;;;15.40;99.90;;;;;;6155214;23;20019;-77
2023/09/26 02:40:00;;;;;;;10.13;9.13;;;15.40;99.90;;;;;;6182643;23;20028;-76
2023/09/26 02:42:26;;;;;;;9.27;8.43;;;15.30;99.90;;;;;;6181865;23;20009;-77
2023/09/26 02:44:52;;;;;;;10.40;9.23;;;15.20;99.90;;;;;;6155521;23;20071;-77
2023/09/26 02:47:17;;;;;;;11.27;8.23;;;15.30;99.90;;;;;;6155412;23;20008;-77
2023/09/26 02:49:43;;;;;;;10.98;9.98;;;15.30;99.90;;;;;;6155570;23;20008;-77
2023/09/26 02:52:08;;;;;;;9.70;8.65;;;15.30;99.90;;;;;;6181408;23;20327;-77
2023/09/26 02:54:34;;;;;;;10.25;9.18;;;15.20;99.90;;;;;;6181945;23;20059;-76
2023/09/26 02:57:00;;;;;;;9.93;8.73;;;15.30;99.90;;;;;;6155448;23;20431;-77
2023/09/26 02:59:25;;;;;;;9.60;8.70;;;15.20;99.90;;;;;;6155566;23;20005;-77
2023/09/26 03:01:54;;;;;;;9.27;8.35;;;15.30;99.90;;;;;;6181910;23;20005;-77
2023/09/26 03:04:19;;;;;;;10.05;8.80;;;15.20;99.90;;;;;;6155483;23;20009;-77
2023/09/26 03:06:45;;;;;;;13.63;10.90;;;15.20;99.90;;;;;;6180629;23;19993;-77
2023/09/26 03:09:10;;;;;;;10.07;9.15;;;15.20;99.90;;;;;;6181098;23;20001;-76
2023/09/26 03:11:36;;;;;;;11.27;10.18;;;15.10;99.90;;;;;;6181580;23;20005;-76
2023/09/26 03:14:01;;;;;;;13.45;11.15;;;15.10;99.90;;;;;;6155331;23;20001;-77
2023/09/26 03:16:27;;;;;;;10.52;9.63;;;15.10;99.90;;;;;;6181644;23;20076;-77
2023/09/26 03:18:56;;;;;;;12.05;10.55;;;15.10;99.90;;;;;;6181456;23;19997;-77
2023/09/26 03:21:22;;;;;;;11.25;10.15;;;15.10;99.90;;;;;;6154700;23;20426;-76
2023/09/26 03:23:49;;;;;;;11.95;10.88;;;15.10;99.90;;;;;;6155164;23;20005;-77
2023/09/26 03:26:14;;;;;;;11.43;10.35;;;15.10;99.90;;;;;;6181446;23;20033;-77
2023/09/26 03:28:40;;;;;;;10.82;9.70;;;15.10;99.90;;;;;;6155060;23;20005;-77
2023/09/26 03:31:08;;;;;;;10.18;9.18;;;15.10;99.90;;;;;;6181399;23;20084;-77
2023/09/26 03:33:34;;;;;;;9.30;8.07;;;15.00;99.90;;;;;;6181734;23;20007;-77
2023/09/26 03:35:59;;;;;;;9.45;8.48;;;15.00;99.90;;;;;;6180432;23;19997;-76
2023/09/26 03:38:25;;;;;;;11.40;10.38;;;15.00;99.90;;;;;;6155095;23;20011;-77
2023/09/26 03:40:56;;;;;;;9.63;8.73;;;14.90;99.90;;;;;;6178832;23;19997;-77
2023/09/26 03:43:22;;;;;;;9.75;8.35;;;15.00;99.90;;;;;;6179170;23;20009;-77
2023/09/26 03:45:47;;;;;;;10.30;9.07;;;14.90;99.90;;;;;;6149161;23;20052;-77
2023/09/26 03:48:13;;;;;;;10.90;8.77;;;14.90;99.90;;;;;;6123055;23;20092;-76
2023/09/26 03:50:40;;;;;;;11.15;9.95;;;14.90;99.90;;;;;;6122330;23;20099;-77
2023/09/26 03:53:05;;;;;;;10.10;9.05;;;14.90;99.90;;;;;;6123124;23;20032;-77
2023/09/26 03:55:31;;;;;;;10.75;9.65;;;14.90;99.90;;;;;;6124414;23;20016;-77
2023/09/26 03:57:56;;;;;;;10.43;9.35;;;14.90;99.90;;;;;;6151334;23;20016;-77
2023/09/26 04:00:26;;;;;;;10.02;9.00;;;14.80;99.90;;;;;;6125582;23;20088;-77
2023/09/26 04:02:55;;;;;;;12.00;9.63;;;14.80;99.90;;;;;;6125195;23;20009;-77
2023/09/26 04:05:21;;;;;;;9.77;8.75;;;14.80;99.90;;;;;;6123546;23;20014;-77
2023/09/26 04:07:47;;;;;;;10.88;9.85;;;14.80;99.90;;;;;;6125162;23;20044;-76
2023/09/26 04:10:12;;;;;;;9.73;8.75;;;14.70;99.90;;;;;;6151414;23;20005;-77
2023/09/26 04:12:39;;;;;;;9.73;8.85;;;14.70;99.90;;;;;;6125214;23;20009;-77
2023/09/26 04:15:05;;;;;;;11.30;10.20;;;14.70;99.90;;;;;;6149630;23;20037;-76
2023/09/26 04:17:30;;;;;;;10.15;9.20;;;14.70;99.90;;;;;;6149832;23;20005;-77
2023/09/26 04:19:57;;;;;;;9.63;8.63;;;14.70;99.90;;;;;;6123639;23;20017;-77
2023/09/26 04:22:23;;;;;;;9.77;8.88;;;14.60;99.90;;;;;;6150515;23;20009;-77
2023/09/26 04:24:48;;;;;;;11.30;9.40;;;14.60;99.90;;;;;;6125224;23;20020;-77
2023/09/26 04:27:14;;;;;;;10.38;8.60;;;14.60;99.90;;;;;;6151683;23;20010;-77
2023/09/26 04:29:40;;;;;;;8.60;7.68;;;14.60;99.90;;;;;;6151188;23;20001;-77
2023/09/26 04:32:05;;;;;;;10.43;9.43;;;14.60;99.90;;;;;;6151092;23;20001;-77
2023/09/26 04:34:32;;;;;;;11.93;10.35;;;14.60;99.90;;;;;;6124801;23;20016;-77
2023/09/26 04:36:57;;;;;;;9.73;8.75;;;14.60;99.90;;;;;;6125066;23;20009;-77
2023/09/26 04:39:23;;;;;;;11.23;10.23;;;14.60;99.90;;;;;;6151220;23;20002;-77
2023/09/26 04:41:49;;;;;;;12.90;9.48;;;14.50;99.90;;;;;;6151254;23;20001;-77
2023/09/26 04:44:14;;;;;;;12.25;10.90;;;14.50;99.90;;;;;;6130446;23;20025;-77
2023/09/26 04:46:40;;;;;;;11.23;10.07;;;14.50;99.90;;;;;;6150982;23;20017;-77
2023/09/26 04:49:06;;;;;;;11.43;10.30;;;14.50;99.90;;;;;;6148776;23;20052;-77
2023/09/26 04:51:32;;;;;;;10.38;9.48;;;14.50;99.90;;;;;;6149783;23;20009;-77
2023/09/26 04:54:01;;;;;;;10.52;9.13;;;14.40;99.90;;;;;;6149230;23;20142;-77
2023/09/26 04:56:26;;;;;;;12.52;11.07;;;14.40;99.90;;;;;;6151590;23;20005;-77
2023/09/26 04:58:52;;;;;;;11.75;10.65;;;14.40;99.90;;;;;;6149388;23;20042;-77
2023/09/26 05:01:18;;;;;;;10.50;9.60;;;14.40;99.90;;;;;;6151569;23;20372;-76
2023/09/26 05:03:44;;;;;;;11.32;10.15;;;14.40;99.90;;;;;;6150173;23;20073;-77
2023/09/26 05:06:10;;;;;;;17.58;13.05;;;14.40;99.90;;;;;;6150971;23;20001;-77
2023/09/26 05:08:36;;;;;;;12.68;11.35;;;14.40;99.90;;;;;;6150887;23;20008;-77
2023/09/26 05:11:02;;;;;;;14.77;10.88;;;14.40;99.90;;;;;;6149024;23;20001;-77
2023/09/26 05:13:27;;;;;;;12.32;11.02;;;14.30;99.90;;;;;;6148922;23;20010;-77
2023/09/26 05:15:53;;;;;;;12.32;11.05;;;14.30;99.90;;;;;;6151142;23;20432;-77
2023/09/26 05:18:19;;;;;;;12.05;10.85;;;14.30;99.90;;;;;;6150579;23;20431;-77
2023/09/26 05:20:44;;;;;;;12.73;11.43;;;14.30;99.90;;;;;;6151205;23;20491;-77
2023/09/26 05:23:10;;;;;;;13.27;11.63;;;14.40;99.90;;;;;;6152336;23;20021;-77
2023/09/26 05:25:35;;;;;;;15.45;12.85;;;14.40;99.90;;;;;;6149528;23;20001;-77
2023/09/26 05:28:01;;;;;;;12.88;11.70;;;14.40;99.90;;;;;;6151721;23;20327;-76
2023/09/26 05:30:27;;;;;;;13.30;11.90;;;14.30;99.90;;;;;;6148054;23;20684;-76
2023/09/26 05:32:52;;;;;;;14.63;12.38;;;14.30;99.90;;;;;;6147039;23;20436;-79
2023/09/26 05:35:18;;;;;;;14.98;12.70;;;14.30;99.90;;;;;;6151633;23;20004;-78
2023/09/26 05:37:44;;;;;;;12.82;11.60;;;14.30;99.90;;;;;;6151827;23;20447;-73
2023/09/26 05:40:10;;;;;;;13.57;12.18;;;14.30;99.90;;;;;;6151756;23;19997;-76
2023/09/26 05:42:37;;;;;;;13.90;12.27;;;14.30;99.90;;;;;;6151974;23;20049;-76
2023/09/26 05:45:04;;;;;;;12.23;10.90;;;14.30;99.90;;;;;;6152371;23;20009;-76
2023/09/26 05:47:30;;;;;;;13.75;11.52;;;14.30;99.90;;;;;;6152412;23;20522;-76
2023/09/26 05:49:56;;;;;;;14.02;12.18;;;14.30;99.90;;;;;;6152247;23;20005;-76
2023/09/26 05:52:21;;;;;;;15.68;12.55;;;14.40;99.90;;;;;;6126544;23;20013;-76
2023/09/26 05:54:47;;;;;;;16.85;12.80;;;14.30;99.90;;;;;;6126305;23;20006;-76
2023/09/26 05:57:13;;;;;;;13.45;10.60;;;14.30;99.90;;;;;;6152229;23;20015;-76
2023/09/26 05:59:39;;;;;;;14.90;12.48;;;14.40;99.90;;;;;;6126294;23;20432;-76
2023/09/26 06:02:07;;;;;;;14.52;12.75;;;14.40;99.90;;;;;;6151990;23;20056;-76
2023/09/26 06:04:32;;;;;;;14.95;12.98;;;14.40;99.90;;;;;;6152623;23;20008;-76
2023/09/26 06:06:58;;;;;;;14.10;12.68;;;14.40;99.90;;;;;;6152351;23;20001;-75
2023/09/26 06:09:23;;;;;;;14.07;12.80;;;14.40;99.90;;;;;;6152590;23;20073;-76
2023/09/26 06:11:49;;;;;;;13.75;11.65;;;14.40;99.90;;;;;;6126683;23;20089;-76
2023/09/26 06:14:14;;;;;;;15.52;14.02;;;14.40;99.90;;;;;;6126427;23;20006;-77
2023/09/26 06:16:40;;;;;;;12.30;10.63;;;14.50;99.90;;;;;;6152041;23;20005;-76
2023/09/26 06:19:05;;;;;;;14.52;13.13;;;14.50;99.90;;;;;;6126264;23;20059;-75
2023/09/26 06:21:31;;;;;;;14.50;13.10;;;14.50;99.90;;;;;;6152629;23;20025;-76
2023/09/26 06:23:57;;;;;;;15.90;13.10;;;14.50;99.90;;;;;;6126348;23;20491;-76
2023/09/26 06:26:22;;;;;;;14.70;13.23;;;14.50;99.90;;;;;;6152592;23;20427;-76
2023/09/26 06:28:48;;;;;;;14.75;13.15;;;14.60;99.90;;;;;;6152299;23;20001;-76
2023/09/26 06:31:14;;;;;;;16.60;13.93;;;14.60;99.90;;;;;;6151851;23;20051;-76
2023/09/26 06:33:40;;;;;;;16.45;14.07;;;14.70;99.90;;;;;;6152395;23;20366;-77
2023/09/26 06:36:13;;;;;;;17.02;14.07;;;14.70;99.90;;;;;;6126146;23;20009;-75
2023/09/26 06:38:39;;;;;;;;;;;14.80;99.90;;;;;;6152579;23;20063;-75
2023/09/26 06:41:08;;;;;;;14.50;12.52;;;14.70;99.90;;;;;;6152101;23;20044;-76
2023/09/26 06:43:33;;;;;;;14.15;12.63;;;14.80;99.90;;;;;;6151755;23;20006;-75
2023/09/26 06:46:04;;;;;;;15.85;12.88;;;14.80;99.90;;;;;;6125680;23;20312;-75
2023/09/26 06:48:29;;;;;;;14.40;13.00;;;14.90;99.90;;;;;;6126482;23;20005;-76
2023/09/26 06:50:55;;;;;;;14.85;13.07;;;14.90;99.90;;;;;;6152131;23;20482;-76
2023/09/26 06:53:22;;;;;;;10.70;9.68;;;14.90;99.90;;;;;;6126049;23;20435;-76
2023/09/26 06:55:48;;;;;;;14.57;11.35;;;14.90;99.90;;;;;;6151990;23;20006;-76
2023/09/26 06:58:13;;;;;;;15.40;12.82;;;14.90;99.90;;;;;;6152094;23;20069;-76
2023/09/26 07:00:39;;;;;;;13.70;12.30;;;15.00;99.90;;;;;;6148592;23;20002;-75
2023/09/26 07:03:05;;;;;;;13.88;11.75;;;15.00;99.90;;;;;;6125330;23;20010;-75
2023/09/26 07:05:31;;;;;;;13.38;12.07;;;15.10;99.90;;;;;;6152277;23;20040;-75
2023/09/26 07:07:57;;;;;;;13.38;12.13;;;15.20;99.90;;;;;;6151302;23;20447;-75
2023/09/26 07:10:23;;;;;;;12.88;11.57;;;15.20;99.90;;;;;;6151918;23;20068;-75
2023/09/26 07:12:49;;;;;;;13.40;12.05;;;15.30;99.90;;;;;;6151260;23;20416;-75
2023/09/26 07:15:15;;;;;;;13.60;12.20;;;15.40;99.90;;;;;;6152027;23;20427;-76
2023/09/26 07:17:41;;;;;;;12.55;11.27;;;15.40;99.90;;;;;;6125311;23;20147;-76
2023/09/26 07:20:13;;;;;;;13.20;11.82;;;15.50;99.90;;;;;;6151774;23;20001;-74
2023/09/26 07:22:42;;;;;;;11.90;10.70;;;15.60;99.90;;;;;;6151923;23;20340;-76
2023/09/26 07:25:10;;;;;;;11.55;10.30;;;15.60;99.90;;;;;;6125344;23;20036;-76
2023/09/26 07:27:36;;;;;;;13.88;11.40;;;15.70;99.90;;;;;;6125040;23;20012;-75
2023/09/26 07:30:02;;;;;;;11.55;10.30;;;15.80;99.90;;;;;;6151757;23;20081;-75
2023/09/26 07:32:27;;;;;;;11.73;10.65;;;15.90;99.90;;;;;;6152319;23;20002;-76
2023/09/26 07:34:53;;;;;;;13.15;11.80;;;16.00;99.90;;;;;;6125338;23;20068;-75
2023/09/26 07:37:18;;;;;;;9.85;8.88;;;16.10;99.90;;;;;;6151623;23;20064;-76
2023/09/26 07:39:49;;;;;;;12.30;10.15;;;16.20;99.90;;;;;;6149890;23;20017;-76
2023/09/26 07:42:14;;;;;;;11.43;9.60;;;16.20;99.90;;;;;;6150076;23;20050;-76
2023/09/26 07:44:40;;;;;;;11.20;9.60;;;16.30;99.90;;;;;;6140257;23;20336;-76
2023/09/26 07:47:06;;;;;;;18.70;11.05;;;16.40;99.90;;;;;;6180668;23;20474;-76
2023/09/26 07:49:31;;;;;;;11.10;9.75;;;16.40;99.90;;;;;;6181081;23;20016;-74
2023/09/26 07:51:57;;;;;;;10.05;9.07;;;16.50;99.90;;;;;;6180742;23;20040;-74
2023/09/26 07:54:22;;;;;;;11.18;8.80;;;16.50;99.90;;;;;;6180856;23;20005;-75
2023/09/26 07:56:48;;;;;;;12.60;9.90;;;16.60;99.90;;;;;;6178484;23;20450;-75
2023/09/26 07:59:14;;;;;;;9.90;8.93;;;16.60;99.90;;;;;;6180784;23;20001;-76
2023/09/26 08:01:40;;;;;;;11.35;9.65;;;16.70;99.90;;;;;;6180296;23;20076;-77
2023/09/26 08:04:07;;;;;;;8.90;7.78;;;16.70;99.90;;;;;;6180997;23;20005;-75
2023/09/26 08:06:33;;;;;;;9.25;7.88;;;16.80;99.90;;;;;;6181129;23;20005;-75
2023/09/26 08:08:58;;;;;;;9.45;7.88;;;16.90;99.90;;;;;;6180550;23;20005;-75
2023/09/26 08:11:27;;;;;;;11.20;8.48;;;17.00;99.90;;;;;;6153976;23;20008;-75
2023/09/26 08:13:54;;;;;;;9.43;8.43;;;17.00;99.90;;;;;;6180920;23;20416;-75
2023/09/26 08:16:21;;;;;;;11.88;7.97;;;17.10;99.90;;;;;;6154671;23;20012;-76
2023/09/26 08:18:47;;;;;;;9.05;8.10;;;17.10;99.90;;;;;;6154177;23;20009;-76
2023/09/26 08:21:13;;;;;;;11.48;8.43;;;17.20;99.90;;;;;;6180446;23;20005;-76
2023/09/26 08:23:39;;;;;;;9.70;8.70;;;17.30;99.90;;;;;;6180779;23;20028;-75
2023/09/26 08:26:11;;;;;;;9.43;8.43;;;17.30;99.90;;;;;;6153863;23;20012;-76
2023/09/26 08:28:37;;;;;;;11.93;8.82;;;17.40;99.90;;;;;;6154569;23;19997;-75
2023/09/26 08:31:09;;;;;;;10.40;8.27;;;17.40;99.90;;;;;;6154549;23;19997;-75
2023/09/26 08:33:36;;;;;;;11.57;8.82;;;17.50;99.90;;;;;;6179501;23;20001;-75
2023/09/26 08:36:02;;;;;;;11.05;9.95;;;17.50;99.90;;;;;;6180563;23;20028;-75
2023/09/26 08:38:27;;;;;;;11.98;8.45;;;17.50;99.90;;;;;;6154210;23;20002;-75
2023/09/26 08:40:57;;;;;;;9.80;8.40;;;17.50;99.90;;;;;;6180024;23;20008;-74
2023/09/26 08:43:24;;;;;;;9.07;7.93;;;17.60;99.90;;;;;;6154383;23;20109;-75
2023/09/26 08:45:50;;;;;;;9.40;8.40;;;17.60;99.90;;;;;;6180360;23;20363;-75
2023/09/26 08:48:17;;;;;;;10.00;8.20;;;17.70;99.90;;;;;;6153944;23;20396;-74
2023/09/26 08:50:42;;;;;;;8.77;8.00;;;17.80;99.90;;;;;;6179782;23;20008;-75
2023/09/26 08:53:08;;;;;;;9.90;8.50;;;17.80;99.90;;;;;;6179076;23;20427;-75
2023/09/26 08:55:36;;;;;;;10.13;9.10;;;17.80;99.90;;;;;;6152356;23;20009;-76
2023/09/26 08:58:02;;;;;;;11.73;8.73;;;17.80;99.90;;;;;;6179265;23;20009;-76
2023/09/26 09:00:28;;;;;;;9.38;8.13;;;17.80;99.90;;;;;;6180004;23;20012;-76
2023/09/26 09:02:53;;;;;;;9.77;8.13;;;17.80;99.90;;;;;;6154302;23;20017;-76
2023/09/26 09:05:21;;;;;;;9.10;8.20;;;17.90;99.90;;;;;;6180678;23;20001;-76
2023/09/26 09:07:47;;;;;;;9.43;8.07;;;17.90;99.90;;;;;;6180654;23;20025;-76
2023/09/26 09:10:16;;;;;;;8.73;7.97;;;18.00;99.90;;;;;;6153739;23;20012;-75
2023/09/26 09:12:44;;;;;;;10.57;7.78;;;18.10;99.90;;;;;;6180374;23;20005;-76
2023/09/26 09:15:15;;;;;;;8.70;7.75;;;18.20;99.90;;;;;;6180615;23;20037;-76
2023/09/26 09:17:52;;;;;;;9.10;7.28;;;18.30;99.90;;;;;;6181047;23;20005;-75
2023/09/26 09:20:34;;;;;;;11.95;7.85;;;18.40;99.90;;;;;;6154185;23;20037;-75
2023/09/26 09:23:07;;;;;;;9.00;7.47;;;18.50;99.90;;;;;;6154236;23;20454;-75
2023/09/26 09:25:37;;;;;;;8.95;6.38;;;18.50;99.90;;;;;;6178528;23;20005;-76
2023/09/26 09:28:07;;;;;;;7.18;6.47;;;18.60;99.90;;;;;;6180329;23;20076;-76
2023/09/26 09:30:42;;;;;;;9.90;6.50;;;18.60;99.90;;;;;;6154487;23;20090;-76
2023/09/26 09:33:12;;;;;;;9.48;6.93;;;18.80;99.90;;;;;;6179953;23;20009;-75
2023/09/26 09:35:37;;;;;;;11.50;6.88;;;18.90;99.90;;;;;;6180505;23;20005;-75
2023/09/26 09:38:04;;;;;;;9.23;6.78;;;19.00;99.90;;;;;;6152271;23;20250;-75
2023/09/26 09:40:31;;;;;;;6.50;5.88;;;19.10;99.90;;;;;;6180215;23;20005;-75
2023/09/26 09:42:56;;;;;;;10.05;5.57;;;19.20;99.90;;;;;;6180172;23;20056;-75
2023/09/26 09:45:22;;;;;;;6.03;5.43;;;19.30;99.90;;;;;;6155890;23;20013;-75
2023/09/26 09:47:48;;;;;;;7.57;5.80;;;19.50;99.90;;;;;;6149725;23;20432;-76
2023/09/26 09:50:15;;;;;;;5.75;5.15;;;19.60;99.90;;;;;;6150111;23;20006;-76
2023/09/26 09:52:43;;;;;;;6.72;5.30;;;19.70;99.90;;;;;;6123754;23;20006;-76
2023/09/26 09:55:18;;;;;;;5.82;5.10;;;19.80;99.80;;;;;;6124240;23;20281;-76
2023/09/26 09:57:47;;;;;;;7.30;5.78;;;19.90;99.70;;;;;;6124148;23;20093;-75
2023/09/26 10:00:14;;;;;;;8.77;5.88;;;20.00;99.60;;;;;;6124115;23;20001;-76
2023/09/26 10:02:40;;;;;;;6.45;5.25;;;20.00;99.40;;;;;;6149863;23;20395;-76
2023/09/26 10:05:12;;;;;;;8.13;5.85;;;20.10;99.30;;;;;;6152153;23;20005;-76
2023/09/26 10:07:45;;;;;;;8.35;5.50;;;20.10;99.30;;;;;;6152069;23;20013;-76
2023/09/26 10:10:12;;;;;;;5.80;5.20;;;20.10;99.10;;;;;;6152315;23;20001;-76
2023/09/26 10:12:39;;;;;;;5.50;5.00;;;20.20;99.40;;;;;;6152383;23;20088;-76
2023/09/26 10:15:13;;;;;;;8.27;5.80;;;20.30;99.00;;;;;;6152248;23;20005;-76
2023/09/26 10:17:45;;;;;;;7.15;6.05;;;20.30;98.80;;;;;;6126301;23;20010;-76
2023/09/26 10:20:14;;;;;;;6.60;5.03;;;20.40;98.70;;;;;;6126048;23;20017;-76
2023/09/26 10:22:41;;;;;;;5.97;4.78;;;20.40;98.90;;;;;;6151539;23;20428;-76
2023/09/26 10:25:08;;;;;;;5.32;4.53;;;20.50;98.70;;;;;;6152388;23;20029;-76
2023/09/26 10:27:34;;;;;;;5.05;4.55;;;20.60;98.70;;;;;;6125992;23;20068;-76
2023/09/26 10:30:06;;;;;;;5.97;4.93;;;20.70;98.70;;;;;;6126303;23;20419;-76
2023/09/26 10:32:32;;;;;;;7.72;5.43;;;20.70;98.60;;;;;;6151747;23;20450;-76
2023/09/26 10:35:01;;;;;;;5.93;4.70;;;20.80;98.40;;;;;;6152249;23;20010;-76
2023/09/26 10:37:27;;;;;;;5.88;4.78;;;20.80;98.50;;;;;;6125536;23;20088;-76
2023/09/26 10:39:53;;;;;;;7.60;4.53;;;20.90;98.60;;;;;;6152101;23;20490;-76
2023/09/26 10:42:25;;;;;;;5.40;4.75;;;21.00;98.60;;;;;;6126261;23;20009;-76
2023/09/26 10:44:51;;;;;;;7.03;4.63;;;21.10;98.50;;;;;;6151687;23;20028;-76
2023/09/26 10:47:26;;;;;;;6.32;4.22;;;21.10;98.50;;;;;;6152292;23;19998;-76
2023/09/26 10:49:51;;;;;;;5.93;4.90;;;21.20;98.40;;;;;;6151978;23;19998;-76
2023/09/26 10:52:17;;;;;;;6.60;4.43;;;21.20;98.20;;;;;;6151238;23;20013;-76
2023/09/26 10:54:43;;;;;;;4.85;3.83;;;21.20;98.10;;;;;;6151844;23;20009;-76
2023/09/26 10:57:17;;;;;;;5.85;4.55;;;21.30;98.10;;;;;;6151789;23;19997;-76
2023/09/26 10:59:43;;;;;;;7.00;5.15;;;21.30;97.80;;;;;;6151628;23;20012;-76
2023/09/26 11:02:09;;;;;;;5.50;4.13;;;21.20;97.70;;;;;;6151601;23;20100;-76
2023/09/26 11:04:35;;;;;;;6.50;4.78;;;21.20;98.00;;;;;;6151988;23;20025;-76
2023/09/26 11:07:02;;;;;;;5.15;4.65;;;21.30;98.10;;;;;;6151155;23;20028;-76
2023/09/26 11:09:29;;;;;;;4.07;3.67;;;21.30;98.20;;;;;;6125804;23;20001;-76
2023/09/26 11:11:56;;;;;;;5.20;4.70;;;21.40;98.30;;;;;;6125729;23;20056;-76
2023/09/26 11:14:25;;;;;;;6.65;4.70;;;21.40;98.10;;;;;;6151754;23;20479;-76
2023/09/26 11:16:53;;;;;;;6.68;4.43;;;21.50;98.00;;;;;;6151449;23;20002;-76
2023/09/26 11:19:22;;;;;;;5.32;4.20;;;21.50;97.80;;;;;;6151302;23;19998;-76
2023/09/26 11:21:51;;;;;;;7.65;5.85;;;21.60;97.80;;;;;;6151636;23;20002;-76
2023/09/26 11:24:19;;;;;;;7.70;5.30;;;21.60;97.60;;;;;;6151673;23;20002;-76
2023/09/26 11:26:45;;;;;;;7.95;4.82;;;21.70;97.40;;;;;;6151736;23;19998;-76
2023/09/26 11:29:12;;;;;;;7.68;4.18;;;21.70;97.50;;;;;;6151168;23;20002;-77
2023/09/26 11:31:39;;;;;;;4.95;4.28;;;21.80;97.50;;;;;;6150711;23;20431;-76
2023/09/26 11:34:05;;;;;;;6.78;4.57;;;21.90;97.40;;;;;;6151240;23;19997;-76
2023/09/26 11:36:31;;;;;;;5.50;4.50;;;21.90;97.30;;;;;;6125664;23;20009;-76
2023/09/26 11:39:00;;;;;;;3.80;3.25;;;22.00;97.00;;;;;;6150405;23;20052;-76
2023/09/26 11:41:25;;;;;;;6.70;4.95;;;22.00;97.20;;;;;;6151886;23;20021;-76
2023/09/26 11:43:52;;;;;;;4.28;3.75;;;22.00;97.00;;;;;;6151267;23;20317;-76
2023/09/26 11:46:19;;;;;;;4.93;3.70;;;22.10;97.00;;;;;;6151547;23;20044;-76
2023/09/26 11:48:46;;;;;;;4.50;3.65;;;22.10;97.10;;;;;;6150686;23;20002;-76
2023/09/26 11:51:13;;;;;;;4.32;3.28;;;22.20;97.00;;;;;;6151568;23;20012;-76
2023/09/26 11:53:40;;;;;;;6.00;3.28;;;22.30;97.00;;;;;;6124613;23;20006;-76
2023/09/26 11:56:09;;;;;;;4.43;3.72;;;22.40;96.90;;;;;;6151051;23;20033;-76
2023/09/26 11:58:38;;;;;;;5.03;3.13;;;22.40;96.40;;;;;;6125307;23;20372;-76
2023/09/26 12:01:04;;;;;;;5.78;3.40;;;22.40;96.20;;;;;;6151166;23;20002;-76
2023/09/26 12:03:30;;;;;;;5.00;3.13;;;22.40;96.10;;;;;;6151349;23;20010;-76
2023/09/26 12:05:56;;;;;;;7.60;4.72;;;22.50;95.90;;;;;;6125456;23;20086;-76
2023/09/26 12:08:21;;;;;;;4.55;3.90;;;22.50;95.50;;;;;;6125488;23;20005;-76
2023/09/26 12:10:47;;;;;;;6.80;4.57;;;22.50;95.40;;;;;;6151606;23;20084;-77
2023/09/26 12:13:12;;;;;;;5.25;4.28;;;22.60;95.30;;;;;;6124731;23;20010;-76
2023/09/26 12:15:38;;;;;;;6.22;3.83;;;22.60;95.30;;;;;;6150534;23;20028;-76
2023/09/26 12:18:04;;;;;;;6.13;4.97;;;22.60;95.30;;;;;;6149997;23;20045;-76
2023/09/26 12:20:30;;;;;;;4.93;4.18;;;22.60;95.20;;;;;;6151422;23;20006;-76
2023/09/26 12:22:56;;;;;;;4.93;4.43;;;22.70;95.20;;;;;;6124964;23;20010;-77
2023/09/26 12:25:27;;;;;;;7.85;4.80;;;22.70;95.10;;;;;;6124464;23;20016;-77
2023/09/26 12:27:53;;;;;;;5.07;4.00;;;22.80;95.00;;;;;;6125061;23;20502;-77
2023/09/26 12:30:20;;;;;;;6.22;4.53;;;22.90;95.00;;;;;;6125278;23;20006;-76
2023/09/26 12:32:46;;;;;;;7.28;5.55;;;22.90;94.90;;;;;;6150625;23;20431;-76
2023/09/26 12:35:12;;;;;;;6.40;5.72;;;23.00;94.70;;;;;;6151294;23;19994;-77
2023/09/26 12:37:38;;;;;;;6.93;5.40;;;23.10;94.70;;;;;;6151015;23;20695;-76